Pagina principale
METAR-TAF:

METAR-TAF

Aeroporti :

Aeroporto di Genova-Sestri

Genova, Italia

latitudine: 44-25N, longitudine: 008-51E, altezza: 2 m

Osservazione

Il bollettino è stato emesso 33 minuti fa, alle 16:20 UTC
Vento 12 kt da sud/sud-est
Temperature 18°C
Umidità 77%
Pressione 1012 hPa
Visibilità 10 km o più
Poco nuvoloso ad un'altezza di 3000 ft

METAR: LIMJ 151620Z 15012KT 9999 FEW030 18/14 Q1012

Ora: 18:53 (16:53 UTC)

Previsione

Il bollettino è stato emesso 5 ore e 53 minuti fa, alle 11:00 UTC
Previsione valida dal 15 alle 12 UTC al 16 alle 12 UTC
Vento 13 kt da sud-est
Visibilità 10 km o più
Nubi sparse ad un'altezza di 1500 ft
Evoluzione graduale
dal 15 alle 21 UTC al 15 alle 23 UTC
Vento 5 kt da direzioni variabili
Evoluzione graduale
dal 16 alle 05 UTC al 16 alle 08 UTC
Vento 13 kt da sud-est

TAF: LIMJ 151100Z 1512/1612 14013KT 9999 SCT015 BECMG 1521/1523 VRB05KT BECMG 1605/1608 14013KT

Osservazioni e previsioni meteorologiche di più di 4000 aeroporti (messaggi METAR e TAF).

Le stazioni disponibili sono rappresentate dai dischi gialli e rossi sulla carta.

Puntare il mouse per vedere il nome della stazione.

Clicca sopra per visualizzare le osservazioni e previsioni meteorologiche.

Per cambiare la mappa : fare clic sui pulsanti verdi con una croce nera per ingrandire, il pulsante verde con un trattino per diminuire, o sulla freccia verde per le mappe adiacenti.


METAR-TAF: